sensor_id;sensor_type;location;lat;lon;timestamp;P1;durP1;ratioP1;P2;durP2;ratioP2
82005;SDS011;71529;47.484;19.064;2023-12-29T00:01:16;30.67;;;17.85;;
82005;SDS011;71529;47.484;19.064;2023-12-29T00:03:46;24.65;;;16.67;;
82005;SDS011;71529;47.484;19.064;2023-12-29T00:06:14;26.20;;;18.05;;
82005;SDS011;71529;47.484;19.064;2023-12-29T00:08:42;40.47;;;19.17;;
82005;SDS011;71529;47.484;19.064;2023-12-29T00:11:16;27.80;;;17.73;;
82005;SDS011;71529;47.484;19.064;2023-12-29T00:13:45;28.85;;;18.70;;
82005;SDS011;71529;47.484;19.064;2023-12-29T00:16:14;32.60;;;18.58;;
82005;SDS011;71529;47.484;19.064;2023-12-29T00:18:42;29.02;;;17.05;;
82005;SDS011;71529;47.484;19.064;2023-12-29T00:21:12;28.98;;;19.10;;
82005;SDS011;71529;47.484;19.064;2023-12-29T00:23:44;29.50;;;19.38;;
82005;SDS011;71529;47.484;19.064;2023-12-29T00:26:12;29.08;;;18.73;;
82005;SDS011;71529;47.484;19.064;2023-12-29T00:28:40;29.60;;;18.40;;
82005;SDS011;71529;47.484;19.064;2023-12-29T00:31:09;31.92;;;18.45;;
82005;SDS011;71529;47.484;19.064;2023-12-29T00:33:37;34.88;;;20.33;;
82005;SDS011;71529;47.484;19.064;2023-12-29T00:36:06;30.98;;;19.60;;
82005;SDS011;71529;47.484;19.064;2023-12-29T00:38:35;36.45;;;21.30;;
82005;SDS011;71529;47.484;19.064;2023-12-29T00:41:04;33.15;;;20.40;;
82005;SDS011;71529;47.484;19.064;2023-12-29T00:43:32;30.02;;;19.65;;
82005;SDS011;71529;47.484;19.064;2023-12-29T00:46:00;30.23;;;18.15;;
82005;SDS011;71529;47.484;19.064;2023-12-29T00:48:30;29.10;;;17.63;;
82005;SDS011;71529;47.484;19.064;2023-12-29T00:51:00;29.15;;;18.23;;
82005;SDS011;71529;47.484;19.064;2023-12-29T00:53:29;29.02;;;18.85;;
82005;SDS011;71529;47.484;19.064;2023-12-29T00:56:00;32.03;;;21.38;;
82005;SDS011;71529;47.484;19.064;2023-12-29T00:58:28;31.38;;;20.80;;
82005;SDS011;71529;47.484;19.064;2023-12-29T01:00:56;32.95;;;21.40;;
82005;SDS011;71529;47.484;19.064;2023-12-29T01:03:25;29.50;;;20.20;;
82005;SDS011;71529;47.484;19.064;2023-12-29T01:05:53;31.30;;;19.70;;
82005;SDS011;71529;47.484;19.064;2023-12-29T01:08:22;35.17;;;20.48;;
82005;SDS011;71529;47.484;19.064;2023-12-29T01:10:50;32.50;;;21.45;;
82005;SDS011;71529;47.484;19.064;2023-12-29T01:13:19;29.05;;;19.70;;
82005;SDS011;71529;47.484;19.064;2023-12-29T01:15:48;28.23;;;18.58;;
82005;SDS011;71529;47.484;19.064;2023-12-29T01:18:16;28.83;;;19.60;;
82005;SDS011;71529;47.484;19.064;2023-12-29T01:20:44;33.20;;;19.58;;
82005;SDS011;71529;47.484;19.064;2023-12-29T01:23:13;33.90;;;21.60;;
82005;SDS011;71529;47.484;19.064;2023-12-29T01:25:41;35.53;;;24.27;;
82005;SDS011;71529;47.484;19.064;2023-12-29T01:28:09;38.05;;;24.83;;
82005;SDS011;71529;47.484;19.064;2023-12-29T01:30:39;40.88;;;25.17;;
82005;SDS011;71529;47.484;19.064;2023-12-29T01:33:07;36.17;;;24.30;;
82005;SDS011;71529;47.484;19.064;2023-12-29T01:35:36;39.70;;;26.30;;
82005;SDS011;71529;47.484;19.064;2023-12-29T01:38:04;49.22;;;27.42;;
82005;SDS011;71529;47.484;19.064;2023-12-29T01:40:32;48.83;;;28.00;;
82005;SDS011;71529;47.484;19.064;2023-12-29T01:43:10;42.72;;;26.58;;
82005;SDS011;71529;47.484;19.064;2023-12-29T01:45:39;44.15;;;27.48;;
82005;SDS011;71529;47.484;19.064;2023-12-29T01:48:21;48.05;;;28.98;;
82005;SDS011;71529;47.484;19.064;2023-12-29T01:50:51;45.15;;;27.88;;
82005;SDS011;71529;47.484;19.064;2023-12-29T01:53:21;49.03;;;29.63;;
82005;SDS011;71529;47.484;19.064;2023-12-29T01:56:05;46.67;;;28.98;;
82005;SDS011;71529;47.484;19.064;2023-12-29T01:58:35;42.13;;;28.90;;
82005;SDS011;71529;47.484;19.064;2023-12-29T02:01:05;45.38;;;29.17;;
82005;SDS011;71529;47.484;19.064;2023-12-29T02:03:35;47.40;;;29.80;;
82005;SDS011;71529;47.484;19.064;2023-12-29T02:06:04;42.65;;;28.92;;
82005;SDS011;71529;47.484;19.064;2023-12-29T02:08:34;46.22;;;25.70;;
82005;SDS011;71529;47.484;19.064;2023-12-29T02:11:03;44.50;;;25.83;;
82005;SDS011;71529;47.484;19.064;2023-12-29T02:13:32;44.15;;;27.48;;
82005;SDS011;71529;47.484;19.064;2023-12-29T02:18:49;34.67;;;23.73;;
82005;SDS011;71529;47.484;19.064;2023-12-29T02:21:22;38.28;;;22.88;;
82005;SDS011;71529;47.484;19.064;2023-12-29T02:23:51;36.80;;;24.05;;
82005;SDS011;71529;47.484;19.064;2023-12-29T02:26:21;44.38;;;23.60;;
82005;SDS011;71529;47.484;19.064;2023-12-29T02:28:55;37.80;;;23.15;;
82005;SDS011;71529;47.484;19.064;2023-12-29T02:31:29;36.40;;;23.38;;
82005;SDS011;71529;47.484;19.064;2023-12-29T02:34:01;34.58;;;23.55;;
82005;SDS011;71529;47.484;19.064;2023-12-29T02:36:33;36.58;;;22.52;;
82005;SDS011;71529;47.484;19.064;2023-12-29T02:39:09;36.78;;;25.63;;
82005;SDS011;71529;47.484;19.064;2023-12-29T02:41:39;38.08;;;24.95;;
82005;SDS011;71529;47.484;19.064;2023-12-29T02:44:07;37.63;;;25.10;;
82005;SDS011;71529;47.484;19.064;2023-12-29T02:46:35;37.10;;;23.90;;
82005;SDS011;71529;47.484;19.064;2023-12-29T02:49:04;38.88;;;24.77;;
82005;SDS011;71529;47.484;19.064;2023-12-29T02:54:22;34.78;;;23.90;;
82005;SDS011;71529;47.484;19.064;2023-12-29T02:56:52;38.60;;;24.83;;
82005;SDS011;71529;47.484;19.064;2023-12-29T02:59:21;41.05;;;26.52;;
82005;SDS011;71529;47.484;19.064;2023-12-29T03:01:49;38.58;;;25.70;;
82005;SDS011;71529;47.484;19.064;2023-12-29T03:04:18;39.08;;;26.75;;
82005;SDS011;71529;47.484;19.064;2023-12-29T03:06:46;42.08;;;27.92;;
82005;SDS011;71529;47.484;19.064;2023-12-29T03:09:15;41.42;;;26.58;;
82005;SDS011;71529;47.484;19.064;2023-12-29T03:11:43;43.20;;;27.92;;
82005;SDS011;71529;47.484;19.064;2023-12-29T03:14:12;43.33;;;28.10;;
82005;SDS011;71529;47.484;19.064;2023-12-29T03:16:42;51.80;;;30.52;;
82005;SDS011;71529;47.484;19.064;2023-12-29T03:19:11;50.95;;;30.63;;
82005;SDS011;71529;47.484;19.064;2023-12-29T03:21:39;53.05;;;30.77;;
82005;SDS011;71529;47.484;19.064;2023-12-29T03:24:07;54.92;;;31.27;;
82005;SDS011;71529;47.484;19.064;2023-12-29T03:26:36;49.88;;;31.40;;
82005;SDS011;71529;47.484;19.064;2023-12-29T03:29:04;52.40;;;31.70;;
82005;SDS011;71529;47.484;19.064;2023-12-29T03:31:34;53.20;;;32.72;;
82005;SDS011;71529;47.484;19.064;2023-12-29T03:34:02;42.22;;;27.65;;
82005;SDS011;71529;47.484;19.064;2023-12-29T03:36:30;44.67;;;28.90;;
82005;SDS011;71529;47.484;19.064;2023-12-29T03:38:59;41.58;;;26.38;;
82005;SDS011;71529;47.484;19.064;2023-12-29T03:41:27;52.95;;;30.63;;
82005;SDS011;71529;47.484;19.064;2023-12-29T03:43:55;45.95;;;27.98;;
82005;SDS011;71529;47.484;19.064;2023-12-29T03:46:24;48.50;;;28.58;;
82005;SDS011;71529;47.484;19.064;2023-12-29T03:48:54;47.13;;;28.45;;
82005;SDS011;71529;47.484;19.064;2023-12-29T03:51:22;47.88;;;26.13;;
82005;SDS011;71529;47.484;19.064;2023-12-29T03:53:50;43.17;;;27.48;;
82005;SDS011;71529;47.484;19.064;2023-12-29T03:56:18;41.58;;;27.85;;
82005;SDS011;71529;47.484;19.064;2023-12-29T03:58:46;45.85;;;27.40;;
82005;SDS011;71529;47.484;19.064;2023-12-29T04:01:15;40.28;;;26.85;;
82005;SDS011;71529;47.484;19.064;2023-12-29T04:03:46;46.08;;;30.17;;
82005;SDS011;71529;47.484;19.064;2023-12-29T04:06:15;51.10;;;28.25;;
82005;SDS011;71529;47.484;19.064;2023-12-29T04:08:44;37.38;;;24.85;;
82005;SDS011;71529;47.484;19.064;2023-12-29T04:11:12;40.85;;;27.58;;
82005;SDS011;71529;47.484;19.064;2023-12-29T04:13:41;41.30;;;25.90;;
82005;SDS011;71529;47.484;19.064;2023-12-29T04:16:09;40.45;;;25.75;;
82005;SDS011;71529;47.484;19.064;2023-12-29T04:18:38;38.97;;;27.10;;
82005;SDS011;71529;47.484;19.064;2023-12-29T04:21:06;43.17;;;26.58;;
82005;SDS011;71529;47.484;19.064;2023-12-29T04:23:36;35.10;;;22.67;;
82005;SDS011;71529;47.484;19.064;2023-12-29T04:26:05;40.40;;;25.17;;
82005;SDS011;71529;47.484;19.064;2023-12-29T04:28:33;37.17;;;25.98;;
82005;SDS011;71529;47.484;19.064;2023-12-29T04:31:01;34.08;;;23.67;;
82005;SDS011;71529;47.484;19.064;2023-12-29T04:33:30;34.60;;;25.10;;
82005;SDS011;71529;47.484;19.064;2023-12-29T04:35:59;36.00;;;23.55;;
82005;SDS011;71529;47.484;19.064;2023-12-29T04:38:27;41.10;;;24.23;;
82005;SDS011;71529;47.484;19.064;2023-12-29T04:40:57;31.48;;;22.20;;
82005;SDS011;71529;47.484;19.064;2023-12-29T04:43:25;36.05;;;24.45;;
82005;SDS011;71529;47.484;19.064;2023-12-29T04:45:53;36.10;;;24.23;;
82005;SDS011;71529;47.484;19.064;2023-12-29T04:48:23;34.88;;;24.00;;
82005;SDS011;71529;47.484;19.064;2023-12-29T04:50:52;33.05;;;23.77;;
82005;SDS011;71529;47.484;19.064;2023-12-29T04:53:20;35.03;;;23.38;;
82005;SDS011;71529;47.484;19.064;2023-12-29T04:55:48;35.53;;;24.15;;
82005;SDS011;71529;47.484;19.064;2023-12-29T04:58:17;30.25;;;22.83;;
82005;SDS011;71529;47.484;19.064;2023-12-29T05:00:46;31.50;;;23.23;;
82005;SDS011;71529;47.484;19.064;2023-12-29T05:03:14;27.63;;;21.30;;
82005;SDS011;71529;47.484;19.064;2023-12-29T05:05:42;32.45;;;21.67;;
82005;SDS011;71529;47.484;19.064;2023-12-29T05:08:11;30.30;;;22.60;;
82005;SDS011;71529;47.484;19.064;2023-12-29T05:10:39;33.65;;;25.88;;
82005;SDS011;71529;47.484;19.064;2023-12-29T05:13:07;28.15;;;20.90;;
82005;SDS011;71529;47.484;19.064;2023-12-29T05:15:36;31.13;;;23.15;;
82005;SDS011;71529;47.484;19.064;2023-12-29T05:18:05;37.03;;;27.45;;
82005;SDS011;71529;47.484;19.064;2023-12-29T05:20:33;33.38;;;23.95;;
82005;SDS011;71529;47.484;19.064;2023-12-29T05:23:01;36.20;;;22.40;;
82005;SDS011;71529;47.484;19.064;2023-12-29T05:25:29;36.63;;;23.65;;
82005;SDS011;71529;47.484;19.064;2023-12-29T05:27:58;28.08;;;22.02;;
82005;SDS011;71529;47.484;19.064;2023-12-29T05:30:27;33.03;;;23.77;;
82005;SDS011;71529;47.484;19.064;2023-12-29T05:32:59;31.13;;;24.02;;
82005;SDS011;71529;47.484;19.064;2023-12-29T05:35:28;35.70;;;23.13;;
82005;SDS011;71529;47.484;19.064;2023-12-29T05:37:55;33.45;;;23.45;;
82005;SDS011;71529;47.484;19.064;2023-12-29T05:40:24;32.80;;;23.40;;
82005;SDS011;71529;47.484;19.064;2023-12-29T05:42:53;33.45;;;23.38;;
82005;SDS011;71529;47.484;19.064;2023-12-29T05:45:21;35.47;;;24.95;;
82005;SDS011;71529;47.484;19.064;2023-12-29T05:47:49;34.97;;;25.65;;
82005;SDS011;71529;47.484;19.064;2023-12-29T05:50:19;35.78;;;25.60;;
82005;SDS011;71529;47.484;19.064;2023-12-29T05:52:47;33.78;;;24.08;;
82005;SDS011;71529;47.484;19.064;2023-12-29T05:55:18;36.10;;;23.90;;
82005;SDS011;71529;47.484;19.064;2023-12-29T05:57:47;36.13;;;26.48;;
82005;SDS011;71529;47.484;19.064;2023-12-29T06:00:15;33.58;;;24.58;;
82005;SDS011;71529;47.484;19.064;2023-12-29T06:02:44;33.20;;;22.80;;
82005;SDS011;71529;47.484;19.064;2023-12-29T06:05:12;39.55;;;24.05;;
82005;SDS011;71529;47.484;19.064;2023-12-29T06:07:42;35.08;;;24.30;;
82005;SDS011;71529;47.484;19.064;2023-12-29T06:10:11;36.40;;;23.80;;
82005;SDS011;71529;47.484;19.064;2023-12-29T06:12:39;39.22;;;27.23;;
82005;SDS011;71529;47.484;19.064;2023-12-29T06:15:08;42.13;;;27.08;;
82005;SDS011;71529;47.484;19.064;2023-12-29T06:17:39;39.47;;;25.10;;
82005;SDS011;71529;47.484;19.064;2023-12-29T06:20:10;45.15;;;28.20;;
82005;SDS011;71529;47.484;19.064;2023-12-29T06:22:39;39.35;;;27.40;;
82005;SDS011;71529;47.484;19.064;2023-12-29T06:25:09;42.17;;;26.77;;
82005;SDS011;71529;47.484;19.064;2023-12-29T06:27:39;42.78;;;27.70;;
82005;SDS011;71529;47.484;19.064;2023-12-29T06:30:08;43.08;;;28.55;;
82005;SDS011;71529;47.484;19.064;2023-12-29T06:32:38;39.58;;;25.17;;
82005;SDS011;71529;47.484;19.064;2023-12-29T06:35:07;44.30;;;28.73;;
82005;SDS011;71529;47.484;19.064;2023-12-29T06:37:37;43.83;;;29.15;;
82005;SDS011;71529;47.484;19.064;2023-12-29T06:40:06;40.03;;;26.48;;
82005;SDS011;71529;47.484;19.064;2023-12-29T06:42:37;39.33;;;26.50;;
82005;SDS011;71529;47.484;19.064;2023-12-29T06:45:05;41.85;;;26.15;;
82005;SDS011;71529;47.484;19.064;2023-12-29T06:47:35;43.80;;;26.98;;
82005;SDS011;71529;47.484;19.064;2023-12-29T06:50:04;44.70;;;29.13;;
82005;SDS011;71529;47.484;19.064;2023-12-29T06:52:33;47.58;;;26.95;;
82005;SDS011;71529;47.484;19.064;2023-12-29T06:55:02;48.13;;;31.48;;
82005;SDS011;71529;47.484;19.064;2023-12-29T06:57:31;49.67;;;30.42;;
82005;SDS011;71529;47.484;19.064;2023-12-29T07:00:00;49.97;;;30.02;;
82005;SDS011;71529;47.484;19.064;2023-12-29T07:02:29;48.58;;;28.13;;
82005;SDS011;71529;47.484;19.064;2023-12-29T07:04:57;44.40;;;28.27;;
82005;SDS011;71529;47.484;19.064;2023-12-29T07:07:25;46.25;;;29.58;;
82005;SDS011;71529;47.484;19.064;2023-12-29T07:09:53;43.58;;;27.52;;
82005;SDS011;71529;47.484;19.064;2023-12-29T07:12:22;39.85;;;25.83;;
82005;SDS011;71529;47.484;19.064;2023-12-29T07:14:50;39.85;;;26.15;;
82005;SDS011;71529;47.484;19.064;2023-12-29T07:17:22;36.75;;;25.70;;
82005;SDS011;71529;47.484;19.064;2023-12-29T07:19:50;44.10;;;28.23;;
82005;SDS011;71529;47.484;19.064;2023-12-29T07:22:18;38.30;;;26.40;;
82005;SDS011;71529;47.484;19.064;2023-12-29T07:24:46;36.33;;;27.08;;
82005;SDS011;71529;47.484;19.064;2023-12-29T07:27:15;40.10;;;27.83;;
82005;SDS011;71529;47.484;19.064;2023-12-29T07:29:43;40.55;;;28.00;;
82005;SDS011;71529;47.484;19.064;2023-12-29T07:32:11;39.53;;;25.58;;
82005;SDS011;71529;47.484;19.064;2023-12-29T07:34:41;38.72;;;27.40;;
82005;SDS011;71529;47.484;19.064;2023-12-29T07:37:11;40.38;;;26.95;;
82005;SDS011;71529;47.484;19.064;2023-12-29T07:39:39;38.08;;;26.40;;
82005;SDS011;71529;47.484;19.064;2023-12-29T07:42:08;46.58;;;28.33;;
82005;SDS011;71529;47.484;19.064;2023-12-29T07:44:36;41.70;;;27.40;;
82005;SDS011;71529;47.484;19.064;2023-12-29T07:47:05;38.55;;;25.42;;
82005;SDS011;71529;47.484;19.064;2023-12-29T07:49:33;41.33;;;26.60;;
82005;SDS011;71529;47.484;19.064;2023-12-29T07:52:03;45.95;;;29.20;;
82005;SDS011;71529;47.484;19.064;2023-12-29T07:54:32;35.00;;;23.73;;
82005;SDS011;71529;47.484;19.064;2023-12-29T07:57:00;38.25;;;25.15;;
82005;SDS011;71529;47.484;19.064;2023-12-29T07:59:29;37.50;;;25.08;;
82005;SDS011;71529;47.484;19.064;2023-12-29T08:01:57;38.35;;;26.02;;
82005;SDS011;71529;47.484;19.064;2023-12-29T08:04:25;42.97;;;28.85;;
82005;SDS011;71529;47.484;19.064;2023-12-29T08:06:54;38.35;;;26.83;;
82005;SDS011;71529;47.484;19.064;2023-12-29T08:09:24;36.45;;;24.38;;
82005;SDS011;71529;47.484;19.064;2023-12-29T08:11:53;33.55;;;23.75;;
82005;SDS011;71529;47.484;19.064;2023-12-29T08:14:21;39.00;;;23.77;;
82005;SDS011;71529;47.484;19.064;2023-12-29T08:16:49;39.83;;;26.40;;
82005;SDS011;71529;47.484;19.064;2023-12-29T08:19:17;39.03;;;24.95;;
82005;SDS011;71529;47.484;19.064;2023-12-29T08:21:46;40.25;;;26.30;;
82005;SDS011;71529;47.484;19.064;2023-12-29T08:24:15;37.80;;;25.15;;
82005;SDS011;71529;47.484;19.064;2023-12-29T08:26:46;35.92;;;23.58;;
82005;SDS011;71529;47.484;19.064;2023-12-29T08:29:15;35.00;;;22.70;;
82005;SDS011;71529;47.484;19.064;2023-12-29T08:31:45;39.85;;;26.90;;
82005;SDS011;71529;47.484;19.064;2023-12-29T08:34:14;41.15;;;28.42;;
82005;SDS011;71529;47.484;19.064;2023-12-29T08:36:45;37.53;;;26.80;;
82005;SDS011;71529;47.484;19.064;2023-12-29T08:39:14;39.50;;;23.60;;
82005;SDS011;71529;47.484;19.064;2023-12-29T08:41:42;35.40;;;24.42;;
82005;SDS011;71529;47.484;19.064;2023-12-29T08:44:12;39.65;;;25.98;;
82005;SDS011;71529;47.484;19.064;2023-12-29T08:46:41;36.83;;;25.20;;
82005;SDS011;71529;47.484;19.064;2023-12-29T08:49:09;33.97;;;25.08;;
82005;SDS011;71529;47.484;19.064;2023-12-29T08:51:38;36.60;;;25.10;;
82005;SDS011;71529;47.484;19.064;2023-12-29T08:54:06;36.47;;;27.10;;
82005;SDS011;71529;47.484;19.064;2023-12-29T08:56:34;39.35;;;25.38;;
82005;SDS011;71529;47.484;19.064;2023-12-29T08:59:03;36.85;;;26.15;;
82005;SDS011;71529;47.484;19.064;2023-12-29T09:01:32;40.28;;;26.52;;
82005;SDS011;71529;47.484;19.064;2023-12-29T09:04:01;33.50;;;25.08;;
82005;SDS011;71529;47.484;19.064;2023-12-29T09:06:29;36.47;;;24.67;;
82005;SDS011;71529;47.484;19.064;2023-12-29T09:08:57;37.90;;;25.92;;
82005;SDS011;71529;47.484;19.064;2023-12-29T09:11:25;39.13;;;24.55;;
82005;SDS011;71529;47.484;19.064;2023-12-29T09:13:54;37.58;;;25.65;;
82005;SDS011;71529;47.484;19.064;2023-12-29T09:16:22;38.53;;;27.08;;
82005;SDS011;71529;47.484;19.064;2023-12-29T09:18:52;36.05;;;24.85;;
82005;SDS011;71529;47.484;19.064;2023-12-29T09:21:20;43.47;;;27.70;;
82005;SDS011;71529;47.484;19.064;2023-12-29T09:23:49;35.40;;;26.55;;
82005;SDS011;71529;47.484;19.064;2023-12-29T09:26:18;41.33;;;26.23;;
82005;SDS011;71529;47.484;19.064;2023-12-29T09:28:46;36.00;;;25.80;;
82005;SDS011;71529;47.484;19.064;2023-12-29T09:31:15;36.85;;;26.15;;
82005;SDS011;71529;47.484;19.064;2023-12-29T09:33:43;34.47;;;26.05;;
82005;SDS011;71529;47.484;19.064;2023-12-29T09:36:13;35.70;;;25.33;;
82005;SDS011;71529;47.484;19.064;2023-12-29T09:38:41;39.55;;;27.77;;
82005;SDS011;71529;47.484;19.064;2023-12-29T09:41:14;44.30;;;28.13;;
82005;SDS011;71529;47.484;19.064;2023-12-29T09:43:43;34.85;;;24.70;;
82005;SDS011;71529;47.484;19.064;2023-12-29T09:46:16;41.67;;;28.30;;
82005;SDS011;71529;47.484;19.064;2023-12-29T09:48:45;39.30;;;27.67;;
82005;SDS011;71529;47.484;19.064;2023-12-29T09:51:16;38.03;;;25.88;;
82005;SDS011;71529;47.484;19.064;2023-12-29T09:53:49;40.58;;;26.63;;
82005;SDS011;71529;47.484;19.064;2023-12-29T09:56:18;39.35;;;26.67;;
82005;SDS011;71529;47.484;19.064;2023-12-29T09:58:47;39.85;;;28.25;;
82005;SDS011;71529;47.484;19.064;2023-12-29T10:01:17;47.05;;;27.20;;
82005;SDS011;71529;47.484;19.064;2023-12-29T10:03:46;44.00;;;27.48;;
82005;SDS011;71529;47.484;19.064;2023-12-29T10:06:16;39.53;;;26.48;;
82005;SDS011;71529;47.484;19.064;2023-12-29T10:08:48;45.58;;;29.52;;
82005;SDS011;71529;47.484;19.064;2023-12-29T10:11:18;38.03;;;25.33;;
82005;SDS011;71529;47.484;19.064;2023-12-29T10:13:49;41.53;;;26.58;;
82005;SDS011;71529;47.484;19.064;2023-12-29T10:16:21;39.15;;;26.27;;
82005;SDS011;71529;47.484;19.064;2023-12-29T10:18:59;43.05;;;29.45;;
82005;SDS011;71529;47.484;19.064;2023-12-29T10:21:33;42.60;;;29.58;;
82005;SDS011;71529;47.484;19.064;2023-12-29T10:24:11;40.60;;;29.40;;
82005;SDS011;71529;47.484;19.064;2023-12-29T10:26:44;45.47;;;28.63;;
82005;SDS011;71529;47.484;19.064;2023-12-29T10:29:12;46.63;;;29.35;;
82005;SDS011;71529;47.484;19.064;2023-12-29T10:31:44;41.08;;;28.40;;
82005;SDS011;71529;47.484;19.064;2023-12-29T10:34:19;43.63;;;30.80;;
82005;SDS011;71529;47.484;19.064;2023-12-29T10:36:50;47.20;;;30.38;;
82005;SDS011;71529;47.484;19.064;2023-12-29T10:39:19;44.35;;;30.08;;
82005;SDS011;71529;47.484;19.064;2023-12-29T10:41:47;47.22;;;29.83;;
82005;SDS011;71529;47.484;19.064;2023-12-29T10:44:16;43.97;;;31.63;;
82005;SDS011;71529;47.484;19.064;2023-12-29T10:46:44;46.80;;;31.88;;
82005;SDS011;71529;47.484;19.064;2023-12-29T10:49:12;49.67;;;33.25;;
82005;SDS011;71529;47.484;19.064;2023-12-29T10:51:42;49.85;;;34.28;;
82005;SDS011;71529;47.484;19.064;2023-12-29T10:54:13;63.50;;;36.33;;
82005;SDS011;71529;47.484;19.064;2023-12-29T10:56:48;59.78;;;37.70;;
82005;SDS011;71529;47.484;19.064;2023-12-29T10:59:28;55.63;;;36.58;;
82005;SDS011;71529;47.484;19.064;2023-12-29T11:01:58;64.50;;;37.70;;
82005;SDS011;71529;47.484;19.064;2023-12-29T11:04:33;54.42;;;36.65;;
82005;SDS011;71529;47.484;19.064;2023-12-29T11:07:01;53.58;;;36.33;;
82005;SDS011;71529;47.484;19.064;2023-12-29T11:09:32;53.47;;;36.08;;
82005;SDS011;71529;47.484;19.064;2023-12-29T11:12:02;54.88;;;37.63;;
82005;SDS011;71529;47.484;19.064;2023-12-29T11:14:31;55.03;;;36.92;;
82005;SDS011;71529;47.484;19.064;2023-12-29T11:17:00;56.88;;;36.53;;
82005;SDS011;71529;47.484;19.064;2023-12-29T11:19:30;55.50;;;35.50;;
82005;SDS011;71529;47.484;19.064;2023-12-29T11:21:59;49.83;;;33.00;;
82005;SDS011;71529;47.484;19.064;2023-12-29T11:24:29;50.35;;;32.65;;
82005;SDS011;71529;47.484;19.064;2023-12-29T11:27:08;48.88;;;33.10;;
82005;SDS011;71529;47.484;19.064;2023-12-29T11:29:38;43.30;;;31.83;;
82005;SDS011;71529;47.484;19.064;2023-12-29T11:32:11;42.15;;;30.05;;
82005;SDS011;71529;47.484;19.064;2023-12-29T11:34:44;43.35;;;29.92;;
82005;SDS011;71529;47.484;19.064;2023-12-29T11:37:18;43.25;;;29.95;;
82005;SDS011;71529;47.484;19.064;2023-12-29T11:39:57;39.90;;;29.08;;
82005;SDS011;71529;47.484;19.064;2023-12-29T11:42:40;45.17;;;28.77;;
82005;SDS011;71529;47.484;19.064;2023-12-29T11:45:24;46.28;;;31.20;;
82005;SDS011;71529;47.484;19.064;2023-12-29T11:47:53;45.95;;;32.03;;
82005;SDS011;71529;47.484;19.064;2023-12-29T11:50:27;48.88;;;30.42;;
82005;SDS011;71529;47.484;19.064;2023-12-29T11:52:57;49.55;;;32.13;;
82005;SDS011;71529;47.484;19.064;2023-12-29T11:55:28;46.72;;;31.98;;
82005;SDS011;71529;47.484;19.064;2023-12-29T11:57:59;52.40;;;34.35;;
82005;SDS011;71529;47.484;19.064;2023-12-29T12:00:40;51.35;;;32.65;;
82005;SDS011;71529;47.484;19.064;2023-12-29T12:03:17;54.25;;;34.78;;
82005;SDS011;71529;47.484;19.064;2023-12-29T12:05:48;60.33;;;35.15;;
82005;SDS011;71529;47.484;19.064;2023-12-29T12:08:26;52.13;;;34.40;;
82005;SDS011;71529;47.484;19.064;2023-12-29T12:10:56;54.88;;;34.90;;
82005;SDS011;71529;47.484;19.064;2023-12-29T12:13:44;56.55;;;35.72;;
82005;SDS011;71529;47.484;19.064;2023-12-29T12:19:20;55.72;;;35.97;;
82005;SDS011;71529;47.484;19.064;2023-12-29T12:21:51;49.55;;;34.78;;
82005;SDS011;71529;47.484;19.064;2023-12-29T12:24:23;44.47;;;31.95;;
82005;SDS011;71529;47.484;19.064;2023-12-29T12:26:53;49.25;;;35.95;;
82005;SDS011;71529;47.484;19.064;2023-12-29T12:29:23;56.65;;;34.83;;
82005;SDS011;71529;47.484;19.064;2023-12-29T12:31:52;47.70;;;31.13;;
82005;SDS011;71529;47.484;19.064;2023-12-29T12:34:22;40.30;;;30.05;;
82005;SDS011;71529;47.484;19.064;2023-12-29T12:36:52;44.95;;;30.50;;
82005;SDS011;71529;47.484;19.064;2023-12-29T12:39:23;41.63;;;29.67;;
82005;SDS011;71529;47.484;19.064;2023-12-29T12:41:51;39.58;;;29.38;;
82005;SDS011;71529;47.484;19.064;2023-12-29T12:44:19;36.13;;;27.02;;
82005;SDS011;71529;47.484;19.064;2023-12-29T12:46:51;37.85;;;27.33;;
82005;SDS011;71529;47.484;19.064;2023-12-29T12:49:24;36.83;;;26.33;;
82005;SDS011;71529;47.484;19.064;2023-12-29T12:51:52;33.40;;;24.50;;
82005;SDS011;71529;47.484;19.064;2023-12-29T12:54:21;32.42;;;24.85;;
82005;SDS011;71529;47.484;19.064;2023-12-29T12:56:50;30.48;;;23.85;;
82005;SDS011;71529;47.484;19.064;2023-12-29T12:59:18;34.60;;;23.58;;
82005;SDS011;71529;47.484;19.064;2023-12-29T13:01:47;33.55;;;23.65;;
82005;SDS011;71529;47.484;19.064;2023-12-29T13:04:17;33.40;;;21.90;;
82005;SDS011;71529;47.484;19.064;2023-12-29T13:06:45;33.15;;;22.02;;
82005;SDS011;71529;47.484;19.064;2023-12-29T13:09:17;31.23;;;23.27;;
82005;SDS011;71529;47.484;19.064;2023-12-29T13:11:46;29.80;;;20.10;;
82005;SDS011;71529;47.484;19.064;2023-12-29T13:14:21;31.52;;;22.83;;
82005;SDS011;71529;47.484;19.064;2023-12-29T13:16:50;28.58;;;21.20;;
82005;SDS011;71529;47.484;19.064;2023-12-29T13:19:20;30.13;;;21.10;;
82005;SDS011;71529;47.484;19.064;2023-12-29T13:21:50;25.23;;;19.92;;
82005;SDS011;71529;47.484;19.064;2023-12-29T13:24:20;24.63;;;18.73;;
82005;SDS011;71529;47.484;19.064;2023-12-29T13:26:50;29.30;;;19.35;;
82005;SDS011;71529;47.484;19.064;2023-12-29T13:32:00;30.55;;;17.58;;
82005;SDS011;71529;47.484;19.064;2023-12-29T13:34:36;27.80;;;17.80;;
82005;SDS011;71529;47.484;19.064;2023-12-29T13:37:10;24.98;;;17.40;;
82005;SDS011;71529;47.484;19.064;2023-12-29T13:39:49;30.60;;;15.55;;
82005;SDS011;71529;47.484;19.064;2023-12-29T13:42:20;25.92;;;16.40;;
82005;SDS011;71529;47.484;19.064;2023-12-29T13:44:53;21.38;;;16.92;;
82005;SDS011;71529;47.484;19.064;2023-12-29T13:47:23;23.15;;;16.17;;
82005;SDS011;71529;47.484;19.064;2023-12-29T13:49:53;32.10;;;15.95;;
82005;SDS011;71529;47.484;19.064;2023-12-29T13:52:21;24.17;;;15.10;;
82005;SDS011;71529;47.484;19.064;2023-12-29T13:54:50;24.77;;;16.60;;
82005;SDS011;71529;47.484;19.064;2023-12-29T13:57:23;21.23;;;15.68;;
82005;SDS011;71529;47.484;19.064;2023-12-29T13:59:58;27.65;;;15.82;;
82005;SDS011;71529;47.484;19.064;2023-12-29T14:02:44;24.80;;;15.95;;
82005;SDS011;71529;47.484;19.064;2023-12-29T14:05:20;21.85;;;15.45;;
82005;SDS011;71529;47.484;19.064;2023-12-29T14:07:52;24.38;;;16.33;;
82005;SDS011;71529;47.484;19.064;2023-12-29T14:10:23;23.40;;;16.77;;
82005;SDS011;71529;47.484;19.064;2023-12-29T14:12:51;26.27;;;18.08;;
82005;SDS011;71529;47.484;19.064;2023-12-29T14:15:19;24.25;;;18.00;;
82005;SDS011;71529;47.484;19.064;2023-12-29T14:17:47;23.58;;;18.00;;
82005;SDS011;71529;47.484;19.064;2023-12-29T14:23:03;31.77;;;20.45;;
82005;SDS011;71529;47.484;19.064;2023-12-29T14:25:32;30.20;;;19.95;;
82005;SDS011;71529;47.484;19.064;2023-12-29T14:28:03;27.52;;;20.77;;
82005;SDS011;71529;47.484;19.064;2023-12-29T14:30:41;27.88;;;20.27;;
82005;SDS011;71529;47.484;19.064;2023-12-29T14:33:10;28.60;;;20.67;;
82005;SDS011;71529;47.484;19.064;2023-12-29T14:35:39;33.45;;;21.77;;
82005;SDS011;71529;47.484;19.064;2023-12-29T14:38:08;28.65;;;21.17;;